sensor_id;sensor_type;location;lat;lon;timestamp;P1;durP1;ratioP1;P2;durP2;ratioP2
59788;SDS011;47353;51.614;5.530;2023-09-30T00:00:14;7.32;;;4.55;;
59788;SDS011;47353;51.614;5.530;2023-09-30T00:02:40;9.75;;;5.70;;
59788;SDS011;47353;51.614;5.530;2023-09-30T00:05:06;8.90;;;5.55;;
59788;SDS011;47353;51.614;5.530;2023-09-30T00:07:33;10.73;;;6.30;;
59788;SDS011;47353;51.614;5.530;2023-09-30T00:09:58;9.40;;;6.07;;
59788;SDS011;47353;51.614;5.530;2023-09-30T00:12:24;8.30;;;5.35;;
59788;SDS011;47353;51.614;5.530;2023-09-30T00:14:50;9.32;;;5.93;;
59788;SDS011;47353;51.614;5.530;2023-09-30T00:17:15;10.30;;;6.00;;
59788;SDS011;47353;51.614;5.530;2023-09-30T00:19:41;10.63;;;6.20;;
59788;SDS011;47353;51.614;5.530;2023-09-30T00:22:06;12.68;;;7.47;;
59788;SDS011;47353;51.614;5.530;2023-09-30T00:24:32;11.70;;;6.97;;
59788;SDS011;47353;51.614;5.530;2023-09-30T00:26:59;10.73;;;6.60;;
59788;SDS011;47353;51.614;5.530;2023-09-30T00:29:24;9.40;;;6.43;;
59788;SDS011;47353;51.614;5.530;2023-09-30T00:31:51;11.75;;;6.97;;
59788;SDS011;47353;51.614;5.530;2023-09-30T00:34:17;11.07;;;7.03;;
59788;SDS011;47353;51.614;5.530;2023-09-30T00:36:42;10.80;;;7.45;;
59788;SDS011;47353;51.614;5.530;2023-09-30T00:49:13;10.15;;;6.78;;
59788;SDS011;47353;51.614;5.530;2023-09-30T00:51:39;9.55;;;6.82;;
59788;SDS011;47353;51.614;5.530;2023-09-30T00:54:05;11.43;;;7.47;;
59788;SDS011;47353;51.614;5.530;2023-09-30T00:56:32;10.98;;;7.30;;
59788;SDS011;47353;51.614;5.530;2023-09-30T00:58:57;8.27;;;6.20;;
59788;SDS011;47353;51.614;5.530;2023-09-30T01:01:25;8.82;;;6.40;;
59788;SDS011;47353;51.614;5.530;2023-09-30T01:03:51;8.65;;;6.28;;
59788;SDS011;47353;51.614;5.530;2023-09-30T01:06:16;8.82;;;6.20;;
59788;SDS011;47353;51.614;5.530;2023-09-30T01:08:42;9.48;;;6.85;;
59788;SDS011;47353;51.614;5.530;2023-09-30T01:11:08;11.18;;;7.30;;
59788;SDS011;47353;51.614;5.530;2023-09-30T01:13:35;11.27;;;7.30;;
59788;SDS011;47353;51.614;5.530;2023-09-30T01:16:04;10.50;;;6.80;;
59788;SDS011;47353;51.614;5.530;2023-09-30T01:18:31;9.18;;;6.55;;
59788;SDS011;47353;51.614;5.530;2023-09-30T01:20:58;9.43;;;6.82;;
59788;SDS011;47353;51.614;5.530;2023-09-30T01:23:28;7.28;;;5.22;;
59788;SDS011;47353;51.614;5.530;2023-09-30T01:25:57;10.15;;;6.80;;
59788;SDS011;47353;51.614;5.530;2023-09-30T01:28:24;8.70;;;6.60;;
59788;SDS011;47353;51.614;5.530;2023-09-30T01:30:49;7.95;;;6.30;;
59788;SDS011;47353;51.614;5.530;2023-09-30T01:33:16;11.20;;;6.03;;
59788;SDS011;47353;51.614;5.530;2023-09-30T01:42:25;9.55;;;6.85;;
59788;SDS011;47353;51.614;5.530;2023-09-30T01:44:51;9.02;;;6.97;;
59788;SDS011;47353;51.614;5.530;2023-09-30T01:50:38;9.10;;;7.05;;
59788;SDS011;47353;51.614;5.530;2023-09-30T01:53:05;10.35;;;7.53;;
59788;SDS011;47353;51.614;5.530;2023-09-30T01:55:34;8.68;;;6.43;;
59788;SDS011;47353;51.614;5.530;2023-09-30T01:57:59;9.35;;;7.25;;
59788;SDS011;47353;51.614;5.530;2023-09-30T02:00:25;10.55;;;7.75;;
59788;SDS011;47353;51.614;5.530;2023-09-30T02:13:44;10.80;;;8.10;;
59788;SDS011;47353;51.614;5.530;2023-09-30T02:19:31;18.15;;;10.73;;
59788;SDS011;47353;51.614;5.530;2023-09-30T02:21:59;18.25;;;11.30;;
59788;SDS011;47353;51.614;5.530;2023-09-30T02:24:25;15.32;;;10.32;;
59788;SDS011;47353;51.614;5.530;2023-09-30T02:26:50;15.23;;;10.30;;
59788;SDS011;47353;51.614;5.530;2023-09-30T02:29:16;12.60;;;9.43;;
59788;SDS011;47353;51.614;5.530;2023-09-30T02:31:41;11.23;;;8.60;;
59788;SDS011;47353;51.614;5.530;2023-09-30T02:34:06;11.68;;;7.78;;
59788;SDS011;47353;51.614;5.530;2023-09-30T02:36:32;9.93;;;7.05;;
59788;SDS011;47353;51.614;5.530;2023-09-30T02:38:58;8.73;;;6.50;;
59788;SDS011;47353;51.614;5.530;2023-09-30T02:47:49;9.65;;;7.10;;
59788;SDS011;47353;51.614;5.530;2023-09-30T02:50:14;14.27;;;9.70;;
59788;SDS011;47353;51.614;5.530;2023-09-30T02:52:39;11.40;;;8.90;;
59788;SDS011;47353;51.614;5.530;2023-09-30T02:55:11;12.40;;;9.13;;
59788;SDS011;47353;51.614;5.530;2023-09-30T02:57:37;9.55;;;7.95;;
59788;SDS011;47353;51.614;5.530;2023-09-30T03:00:03;9.60;;;7.35;;
59788;SDS011;47353;51.614;5.530;2023-09-30T03:02:39;11.52;;;8.75;;
59788;SDS011;47353;51.614;5.530;2023-09-30T03:05:04;10.68;;;8.15;;
59788;SDS011;47353;51.614;5.530;2023-09-30T03:07:30;11.60;;;8.40;;
59788;SDS011;47353;51.614;5.530;2023-09-30T03:09:58;13.27;;;10.13;;
59788;SDS011;47353;51.614;5.530;2023-09-30T03:12:25;12.93;;;9.20;;
59788;SDS011;47353;51.614;5.530;2023-09-30T03:14:51;11.45;;;8.65;;
59788;SDS011;47353;51.614;5.530;2023-09-30T03:17:16;11.00;;;8.25;;
59788;SDS011;47353;51.614;5.530;2023-09-30T03:19:42;10.52;;;7.72;;
59788;SDS011;47353;51.614;5.530;2023-09-30T03:22:08;9.25;;;7.68;;
59788;SDS011;47353;51.614;5.530;2023-09-30T03:24:36;11.10;;;8.52;;
59788;SDS011;47353;51.614;5.530;2023-09-30T03:27:03;12.00;;;8.93;;
59788;SDS011;47353;51.614;5.530;2023-09-30T03:29:28;16.17;;;9.75;;
59788;SDS011;47353;51.614;5.530;2023-09-30T03:31:54;12.88;;;9.70;;
59788;SDS011;47353;51.614;5.530;2023-09-30T03:34:19;15.35;;;10.70;;
59788;SDS011;47353;51.614;5.530;2023-09-30T03:36:45;15.35;;;9.82;;
59788;SDS011;47353;51.614;5.530;2023-09-30T03:39:10;13.20;;;9.23;;
59788;SDS011;47353;51.614;5.530;2023-09-30T03:41:40;13.52;;;9.60;;
59788;SDS011;47353;51.614;5.530;2023-09-30T03:44:05;9.70;;;7.82;;
59788;SDS011;47353;51.614;5.530;2023-09-30T03:46:31;11.73;;;8.52;;
59788;SDS011;47353;51.614;5.530;2023-09-30T03:48:56;13.93;;;10.25;;
59788;SDS011;47353;51.614;5.530;2023-09-30T03:51:22;11.43;;;8.43;;
59788;SDS011;47353;51.614;5.530;2023-09-30T03:53:50;12.63;;;8.90;;
59788;SDS011;47353;51.614;5.530;2023-09-30T03:56:15;12.93;;;9.32;;
59788;SDS011;47353;51.614;5.530;2023-09-30T03:58:43;11.63;;;9.32;;
59788;SDS011;47353;51.614;5.530;2023-09-30T04:01:09;12.77;;;8.88;;
59788;SDS011;47353;51.614;5.530;2023-09-30T04:03:36;12.02;;;8.52;;
59788;SDS011;47353;51.614;5.530;2023-09-30T04:06:04;13.65;;;9.02;;
59788;SDS011;47353;51.614;5.530;2023-09-30T04:08:30;13.32;;;8.38;;
59788;SDS011;47353;51.614;5.530;2023-09-30T04:10:58;12.38;;;9.07;;
59788;SDS011;47353;51.614;5.530;2023-09-30T04:13:24;13.82;;;9.00;;
59788;SDS011;47353;51.614;5.530;2023-09-30T04:15:49;12.18;;;8.15;;
59788;SDS011;47353;51.614;5.530;2023-09-30T04:18:16;12.65;;;8.65;;
59788;SDS011;47353;51.614;5.530;2023-09-30T04:20:41;12.48;;;9.57;;
59788;SDS011;47353;51.614;5.530;2023-09-30T04:23:07;13.85;;;9.88;;
59788;SDS011;47353;51.614;5.530;2023-09-30T04:25:35;15.10;;;10.13;;
59788;SDS011;47353;51.614;5.530;2023-09-30T04:28:00;14.80;;;10.02;;
59788;SDS011;47353;51.614;5.530;2023-09-30T04:30:27;13.80;;;9.38;;
59788;SDS011;47353;51.614;5.530;2023-09-30T04:32:53;13.52;;;9.13;;
59788;SDS011;47353;51.614;5.530;2023-09-30T04:35:19;12.27;;;8.57;;
59788;SDS011;47353;51.614;5.530;2023-09-30T04:37:44;12.18;;;8.50;;
59788;SDS011;47353;51.614;5.530;2023-09-30T04:40:10;11.18;;;8.70;;
59788;SDS011;47353;51.614;5.530;2023-09-30T04:42:44;12.95;;;9.07;;
59788;SDS011;47353;51.614;5.530;2023-09-30T04:45:11;14.85;;;9.85;;
59788;SDS011;47353;51.614;5.530;2023-09-30T04:47:38;15.68;;;10.57;;
59788;SDS011;47353;51.614;5.530;2023-09-30T04:50:06;12.80;;;9.70;;
59788;SDS011;47353;51.614;5.530;2023-09-30T04:52:33;14.00;;;9.85;;
59788;SDS011;47353;51.614;5.530;2023-09-30T04:54:59;14.93;;;9.70;;
59788;SDS011;47353;51.614;5.530;2023-09-30T04:57:25;12.77;;;8.88;;
59788;SDS011;47353;51.614;5.530;2023-09-30T04:59:51;14.27;;;8.63;;
59788;SDS011;47353;51.614;5.530;2023-09-30T05:02:17;12.98;;;9.15;;
59788;SDS011;47353;51.614;5.530;2023-09-30T05:04:42;13.57;;;9.48;;
59788;SDS011;47353;51.614;5.530;2023-09-30T05:07:08;12.52;;;9.48;;
59788;SDS011;47353;51.614;5.530;2023-09-30T05:09:34;15.68;;;10.75;;
59788;SDS011;47353;51.614;5.530;2023-09-30T05:11:59;13.15;;;9.48;;
59788;SDS011;47353;51.614;5.530;2023-09-30T05:14:24;13.48;;;9.18;;
59788;SDS011;47353;51.614;5.530;2023-09-30T05:16:50;15.73;;;10.18;;
59788;SDS011;47353;51.614;5.530;2023-09-30T05:19:15;19.75;;;12.38;;
59788;SDS011;47353;51.614;5.530;2023-09-30T05:21:41;15.93;;;11.48;;
59788;SDS011;47353;51.614;5.530;2023-09-30T05:24:07;14.82;;;11.15;;
59788;SDS011;47353;51.614;5.530;2023-09-30T05:29:55;13.98;;;10.27;;
59788;SDS011;47353;51.614;5.530;2023-09-30T05:32:21;15.43;;;10.45;;
59788;SDS011;47353;51.614;5.530;2023-09-30T05:34:47;19.27;;;12.40;;
59788;SDS011;47353;51.614;5.530;2023-09-30T05:37:13;18.45;;;11.63;;
59788;SDS011;47353;51.614;5.530;2023-09-30T05:39:39;14.48;;;9.98;;
59788;SDS011;47353;51.614;5.530;2023-09-30T05:42:04;14.77;;;10.52;;
59788;SDS011;47353;51.614;5.530;2023-09-30T05:44:30;15.82;;;10.60;;
59788;SDS011;47353;51.614;5.530;2023-09-30T05:46:57;13.82;;;10.45;;
59788;SDS011;47353;51.614;5.530;2023-09-30T05:49:22;15.52;;;10.07;;
59788;SDS011;47353;51.614;5.530;2023-09-30T05:51:48;14.63;;;10.45;;
59788;SDS011;47353;51.614;5.530;2023-09-30T05:54:15;15.13;;;10.73;;
59788;SDS011;47353;51.614;5.530;2023-09-30T05:56:41;15.20;;;11.27;;
59788;SDS011;47353;51.614;5.530;2023-09-30T05:59:08;13.80;;;10.18;;
59788;SDS011;47353;51.614;5.530;2023-09-30T06:01:34;14.35;;;9.63;;
59788;SDS011;47353;51.614;5.530;2023-09-30T06:04:01;18.27;;;11.18;;
59788;SDS011;47353;51.614;5.530;2023-09-30T06:06:27;14.45;;;10.50;;
59788;SDS011;47353;51.614;5.530;2023-09-30T06:08:56;17.63;;;11.88;;
59788;SDS011;47353;51.614;5.530;2023-09-30T06:11:24;16.20;;;12.35;;
59788;SDS011;47353;51.614;5.530;2023-09-30T06:13:52;20.77;;;12.40;;
59788;SDS011;47353;51.614;5.530;2023-09-30T06:16:19;21.45;;;12.85;;
59788;SDS011;47353;51.614;5.530;2023-09-30T06:18:45;19.23;;;12.57;;
59788;SDS011;47353;51.614;5.530;2023-09-30T06:21:11;19.77;;;12.48;;
59788;SDS011;47353;51.614;5.530;2023-09-30T06:23:37;18.10;;;12.10;;
59788;SDS011;47353;51.614;5.530;2023-09-30T06:26:02;18.05;;;12.82;;
59788;SDS011;47353;51.614;5.530;2023-09-30T06:28:28;18.88;;;12.32;;
59788;SDS011;47353;51.614;5.530;2023-09-30T06:30:56;17.73;;;12.52;;
59788;SDS011;47353;51.614;5.530;2023-09-30T06:33:22;21.92;;;13.98;;
59788;SDS011;47353;51.614;5.530;2023-09-30T06:35:47;22.67;;;13.93;;
59788;SDS011;47353;51.614;5.530;2023-09-30T06:38:16;22.52;;;13.57;;
59788;SDS011;47353;51.614;5.530;2023-09-30T06:40:43;20.10;;;13.07;;
59788;SDS011;47353;51.614;5.530;2023-09-30T06:43:10;19.23;;;13.32;;
59788;SDS011;47353;51.614;5.530;2023-09-30T06:45:35;23.65;;;12.75;;
59788;SDS011;47353;51.614;5.530;2023-09-30T06:48:06;19.30;;;13.00;;
59788;SDS011;47353;51.614;5.530;2023-09-30T06:50:32;21.73;;;13.13;;
59788;SDS011;47353;51.614;5.530;2023-09-30T06:52:57;20.30;;;11.98;;
59788;SDS011;47353;51.614;5.530;2023-09-30T06:55:22;20.70;;;13.65;;
59788;SDS011;47353;51.614;5.530;2023-09-30T06:57:50;17.92;;;12.60;;
59788;SDS011;47353;51.614;5.530;2023-09-30T07:00:16;21.85;;;13.52;;
59788;SDS011;47353;51.614;5.530;2023-09-30T07:02:41;22.63;;;13.98;;
59788;SDS011;47353;51.614;5.530;2023-09-30T07:05:07;19.52;;;11.98;;
59788;SDS011;47353;51.614;5.530;2023-09-30T07:07:33;17.45;;;12.10;;
59788;SDS011;47353;51.614;5.530;2023-09-30T07:09:59;20.23;;;12.68;;
59788;SDS011;47353;51.614;5.530;2023-09-30T07:12:24;21.00;;;13.13;;
59788;SDS011;47353;51.614;5.530;2023-09-30T07:14:50;18.63;;;13.02;;
59788;SDS011;47353;51.614;5.530;2023-09-30T07:17:15;23.30;;;13.68;;
59788;SDS011;47353;51.614;5.530;2023-09-30T07:19:41;19.38;;;13.15;;
59788;SDS011;47353;51.614;5.530;2023-09-30T07:22:06;19.95;;;11.52;;
59788;SDS011;47353;51.614;5.530;2023-09-30T07:24:31;17.08;;;11.27;;
59788;SDS011;47353;51.614;5.530;2023-09-30T07:26:58;23.10;;;12.05;;
59788;SDS011;47353;51.614;5.530;2023-09-30T07:29:24;18.38;;;12.18;;
59788;SDS011;47353;51.614;5.530;2023-09-30T07:31:49;17.77;;;11.00;;
59788;SDS011;47353;51.614;5.530;2023-09-30T07:34:16;17.58;;;10.50;;
59788;SDS011;47353;51.614;5.530;2023-09-30T07:36:41;16.08;;;9.75;;
59788;SDS011;47353;51.614;5.530;2023-09-30T07:39:07;15.00;;;9.95;;
59788;SDS011;47353;51.614;5.530;2023-09-30T07:41:36;18.77;;;9.45;;
59788;SDS011;47353;51.614;5.530;2023-09-30T07:49:50;14.68;;;8.50;;
59788;SDS011;47353;51.614;5.530;2023-09-30T07:52:15;14.32;;;8.52;;
59788;SDS011;47353;51.614;5.530;2023-09-30T07:54:41;14.40;;;8.13;;
59788;SDS011;47353;51.614;5.530;2023-09-30T07:57:07;17.05;;;8.20;;
59788;SDS011;47353;51.614;5.530;2023-09-30T07:59:32;13.40;;;8.25;;
59788;SDS011;47353;51.614;5.530;2023-09-30T08:01:58;14.15;;;8.43;;
59788;SDS011;47353;51.614;5.530;2023-09-30T08:04:24;13.60;;;8.10;;
59788;SDS011;47353;51.614;5.530;2023-09-30T08:06:50;14.10;;;8.02;;
59788;SDS011;47353;51.614;5.530;2023-09-30T08:09:16;13.00;;;7.53;;
59788;SDS011;47353;51.614;5.530;2023-09-30T08:11:43;11.15;;;7.35;;
59788;SDS011;47353;51.614;5.530;2023-09-30T08:14:09;14.57;;;7.72;;
59788;SDS011;47353;51.614;5.530;2023-09-30T08:16:37;14.27;;;7.68;;
59788;SDS011;47353;51.614;5.530;2023-09-30T08:19:03;11.15;;;7.18;;
59788;SDS011;47353;51.614;5.530;2023-09-30T08:21:29;12.98;;;6.60;;
59788;SDS011;47353;51.614;5.530;2023-09-30T08:23:55;12.95;;;7.00;;
59788;SDS011;47353;51.614;5.530;2023-09-30T08:26:21;13.20;;;6.40;;
59788;SDS011;47353;51.614;5.530;2023-09-30T08:28:47;9.43;;;5.60;;
59788;SDS011;47353;51.614;5.530;2023-09-30T08:31:12;12.85;;;5.43;;
59788;SDS011;47353;51.614;5.530;2023-09-30T08:33:38;9.85;;;5.22;;
59788;SDS011;47353;51.614;5.530;2023-09-30T08:36:06;9.30;;;4.80;;
59788;SDS011;47353;51.614;5.530;2023-09-30T08:38:38;13.20;;;6.38;;
59788;SDS011;47353;51.614;5.530;2023-09-30T08:44:28;11.65;;;5.60;;
59788;SDS011;47353;51.614;5.530;2023-09-30T08:46:54;9.60;;;5.65;;
59788;SDS011;47353;51.614;5.530;2023-09-30T08:49:21;8.27;;;5.53;;
59788;SDS011;47353;51.614;5.530;2023-09-30T08:51:48;9.07;;;5.70;;
59788;SDS011;47353;51.614;5.530;2023-09-30T08:57:42;10.68;;;5.30;;
59788;SDS011;47353;51.614;5.530;2023-09-30T09:00:11;10.65;;;5.60;;
59788;SDS011;47353;51.614;5.530;2023-09-30T09:02:38;11.45;;;5.07;;
59788;SDS011;47353;51.614;5.530;2023-09-30T09:05:04;9.68;;;5.68;;
59788;SDS011;47353;51.614;5.530;2023-09-30T09:07:31;9.38;;;5.25;;
59788;SDS011;47353;51.614;5.530;2023-09-30T09:10:03;9.88;;;4.95;;
59788;SDS011;47353;51.614;5.530;2023-09-30T09:12:34;9.50;;;5.10;;
59788;SDS011;47353;51.614;5.530;2023-09-30T09:15:04;9.85;;;5.10;;
59788;SDS011;47353;51.614;5.530;2023-09-30T09:17:41;6.95;;;4.38;;
59788;SDS011;47353;51.614;5.530;2023-09-30T09:20:08;8.32;;;4.30;;
59788;SDS011;47353;51.614;5.530;2023-09-30T09:22:42;7.45;;;3.90;;
59788;SDS011;47353;51.614;5.530;2023-09-30T09:25:08;9.73;;;4.95;;
59788;SDS011;47353;51.614;5.530;2023-09-30T09:27:34;8.85;;;4.32;;
59788;SDS011;47353;51.614;5.530;2023-09-30T09:30:34;8.70;;;4.13;;
59788;SDS011;47353;51.614;5.530;2023-09-30T09:33:03;8.27;;;4.30;;
59788;SDS011;47353;51.614;5.530;2023-09-30T09:35:30;6.88;;;3.38;;
59788;SDS011;47353;51.614;5.530;2023-09-30T09:38:05;9.10;;;4.45;;
59788;SDS011;47353;51.614;5.530;2023-09-30T09:40:32;8.82;;;4.50;;
59788;SDS011;47353;51.614;5.530;2023-09-30T09:42:59;7.75;;;3.90;;
59788;SDS011;47353;51.614;5.530;2023-09-30T09:45:29;6.95;;;4.03;;
59788;SDS011;47353;51.614;5.530;2023-09-30T09:47:57;9.43;;;4.72;;
59788;SDS011;47353;51.614;5.530;2023-09-30T09:50:23;8.00;;;4.80;;
59788;SDS011;47353;51.614;5.530;2023-09-30T09:52:49;7.55;;;3.60;;
59788;SDS011;47353;51.614;5.530;2023-09-30T09:55:19;7.85;;;4.63;;
59788;SDS011;47353;51.614;5.530;2023-09-30T09:57:48;7.18;;;4.00;;
59788;SDS011;47353;51.614;5.530;2023-09-30T10:00:16;9.80;;;4.65;;
59788;SDS011;47353;51.614;5.530;2023-09-30T10:02:44;8.20;;;4.20;;
59788;SDS011;47353;51.614;5.530;2023-09-30T10:05:11;7.72;;;3.78;;
59788;SDS011;47353;51.614;5.530;2023-09-30T10:07:38;7.20;;;3.70;;
59788;SDS011;47353;51.614;5.530;2023-09-30T10:10:10;6.70;;;4.10;;
59788;SDS011;47353;51.614;5.530;2023-09-30T10:12:40;10.05;;;5.43;;
59788;SDS011;47353;51.614;5.530;2023-09-30T10:15:50;10.18;;;5.05;;
59788;SDS011;47353;51.614;5.530;2023-09-30T10:18:00;8.68;;;4.95;;
59788;SDS011;47353;51.614;5.530;2023-09-30T10:20:31;8.52;;;4.05;;
59788;SDS011;47353;51.614;5.530;2023-09-30T10:25:42;9.18;;;4.85;;
59788;SDS011;47353;51.614;5.530;2023-09-30T10:31:10;8.45;;;4.30;;
59788;SDS011;47353;51.614;5.530;2023-09-30T10:33:55;9.20;;;4.95;;
59788;SDS011;47353;51.614;5.530;2023-09-30T10:36:39;7.78;;;4.45;;
59788;SDS011;47353;51.614;5.530;2023-09-30T10:39:06;8.73;;;4.13;;
59788;SDS011;47353;51.614;5.530;2023-09-30T10:49:46;6.68;;;3.85;;
59788;SDS011;47353;51.614;5.530;2023-09-30T10:52:12;7.15;;;3.95;;
59788;SDS011;47353;51.614;5.530;2023-09-30T10:54:49;8.23;;;4.22;;
59788;SDS011;47353;51.614;5.530;2023-09-30T10:57:15;7.45;;;4.38;;
59788;SDS011;47353;51.614;5.530;2023-09-30T11:00:13;7.25;;;4.55;;
59788;SDS011;47353;51.614;5.530;2023-09-30T11:02:50;12.60;;;6.80;;
59788;SDS011;47353;51.614;5.530;2023-09-30T11:05:18;7.63;;;4.65;;
59788;SDS011;47353;51.614;5.530;2023-09-30T11:07:47;7.93;;;4.05;;
59788;SDS011;47353;51.614;5.530;2023-09-30T11:10:17;8.10;;;4.50;;
59788;SDS011;47353;51.614;5.530;2023-09-30T11:12:53;8.85;;;4.35;;
59788;SDS011;47353;51.614;5.530;2023-09-30T11:15:22;8.77;;;4.53;;
59788;SDS011;47353;51.614;5.530;2023-09-30T11:17:48;8.20;;;4.60;;
59788;SDS011;47353;51.614;5.530;2023-09-30T11:20:15;5.57;;;3.70;;
59788;SDS011;47353;51.614;5.530;2023-09-30T11:22:43;7.25;;;3.45;;
59788;SDS011;47353;51.614;5.530;2023-09-30T11:25:15;6.07;;;3.28;;
59788;SDS011;47353;51.614;5.530;2023-09-30T11:27:42;7.32;;;4.25;;
59788;SDS011;47353;51.614;5.530;2023-09-30T11:30:08;7.10;;;3.55;;
59788;SDS011;47353;51.614;5.530;2023-09-30T11:32:34;5.47;;;3.08;;
59788;SDS011;47353;51.614;5.530;2023-09-30T11:34:59;6.60;;;3.70;;
59788;SDS011;47353;51.614;5.530;2023-09-30T11:37:30;7.13;;;3.20;;
59788;SDS011;47353;51.614;5.530;2023-09-30T11:40:08;6.18;;;3.17;;
59788;SDS011;47353;51.614;5.530;2023-09-30T11:42:38;5.90;;;3.38;;
59788;SDS011;47353;51.614;5.530;2023-09-30T11:45:17;6.55;;;3.20;;
59788;SDS011;47353;51.614;5.530;2023-09-30T11:47:44;7.93;;;3.83;;
59788;SDS011;47353;51.614;5.530;2023-09-30T11:50:10;6.75;;;3.65;;
59788;SDS011;47353;51.614;5.530;2023-09-30T11:52:36;6.13;;;3.20;;
59788;SDS011;47353;51.614;5.530;2023-09-30T11:55:04;4.63;;;3.10;;
59788;SDS011;47353;51.614;5.530;2023-09-30T11:57:30;5.93;;;2.75;;
59788;SDS011;47353;51.614;5.530;2023-09-30T11:59:55;5.05;;;2.90;;
59788;SDS011;47353;51.614;5.530;2023-09-30T12:02:21;5.93;;;2.97;;
59788;SDS011;47353;51.614;5.530;2023-09-30T12:04:46;6.53;;;2.90;;
59788;SDS011;47353;51.614;5.530;2023-09-30T12:07:12;5.38;;;3.10;;
59788;SDS011;47353;51.614;5.530;2023-09-30T12:09:38;8.60;;;4.05;;
59788;SDS011;47353;51.614;5.530;2023-09-30T12:12:04;5.80;;;2.90;;
59788;SDS011;47353;51.614;5.530;2023-09-30T12:14:34;5.63;;;2.50;;
59788;SDS011;47353;51.614;5.530;2023-09-30T12:16:59;4.97;;;2.53;;
59788;SDS011;47353;51.614;5.530;2023-09-30T12:19:25;4.97;;;2.50;;
59788;SDS011;47353;51.614;5.530;2023-09-30T12:21:51;8.68;;;4.15;;
59788;SDS011;47353;51.614;5.530;2023-09-30T12:24:17;5.57;;;2.90;;
59788;SDS011;47353;51.614;5.530;2023-09-30T12:26:46;5.00;;;2.40;;
59788;SDS011;47353;51.614;5.530;2023-09-30T12:29:17;6.95;;;2.50;;
59788;SDS011;47353;51.614;5.530;2023-09-30T12:31:44;3.55;;;2.10;;
59788;SDS011;47353;51.614;5.530;2023-09-30T12:34:10;5.35;;;2.65;;
59788;SDS011;47353;51.614;5.530;2023-09-30T12:36:37;4.47;;;2.38;;
59788;SDS011;47353;51.614;5.530;2023-09-30T12:39:02;4.35;;;2.30;;
59788;SDS011;47353;51.614;5.530;2023-09-30T12:41:35;4.60;;;2.08;;
59788;SDS011;47353;51.614;5.530;2023-09-30T12:44:07;4.15;;;2.00;;
59788;SDS011;47353;51.614;5.530;2023-09-30T12:46:33;3.45;;;1.80;;
59788;SDS011;47353;51.614;5.530;2023-09-30T12:49:01;4.55;;;2.17;;
59788;SDS011;47353;51.614;5.530;2023-09-30T12:51:27;3.88;;;2.10;;
59788;SDS011;47353;51.614;5.530;2023-09-30T12:53:53;6.05;;;2.40;;
59788;SDS011;47353;51.614;5.530;2023-09-30T12:56:18;4.45;;;2.13;;
59788;SDS011;47353;51.614;5.530;2023-09-30T12:58:44;6.30;;;2.13;;
59788;SDS011;47353;51.614;5.530;2023-09-30T13:01:09;4.50;;;2.35;;
59788;SDS011;47353;51.614;5.530;2023-09-30T13:03:35;3.83;;;2.22;;
59788;SDS011;47353;51.614;5.530;2023-09-30T13:06:00;4.43;;;2.05;;
59788;SDS011;47353;51.614;5.530;2023-09-30T13:08:26;4.80;;;2.42;;
59788;SDS011;47353;51.614;5.530;2023-09-30T13:10:51;6.38;;;2.38;;
59788;SDS011;47353;51.614;5.530;2023-09-30T13:13:17;5.50;;;2.33;;
59788;SDS011;47353;51.614;5.530;2023-09-30T13:15:43;5.85;;;2.88;;
59788;SDS011;47353;51.614;5.530;2023-09-30T13:18:08;4.85;;;2.10;;
59788;SDS011;47353;51.614;5.530;2023-09-30T13:20:34;5.72;;;2.08;;
59788;SDS011;47353;51.614;5.530;2023-09-30T13:22:59;6.28;;;2.42;;
59788;SDS011;47353;51.614;5.530;2023-09-30T13:25:25;7.40;;;2.65;;
59788;SDS011;47353;51.614;5.530;2023-09-30T13:27:51;5.65;;;2.78;;
59788;SDS011;47353;51.614;5.530;2023-09-30T13:30:17;5.38;;;2.65;;
59788;SDS011;47353;51.614;5.530;2023-09-30T13:32:43;5.65;;;2.55;;
59788;SDS011;47353;51.614;5.530;2023-09-30T13:35:09;7.05;;;2.40;;
59788;SDS011;47353;51.614;5.530;2023-09-30T13:37:34;5.50;;;2.08;;
59788;SDS011;47353;51.614;5.530;2023-09-30T13:40:02;4.80;;;2.30;;
59788;SDS011;47353;51.614;5.530;2023-09-30T13:42:29;5.10;;;2.53;;
59788;SDS011;47353;51.614;5.530;2023-09-30T13:44:55;5.70;;;2.80;;
59788;SDS011;47353;51.614;5.530;2023-09-30T13:47:23;5.93;;;2.45;;
59788;SDS011;47353;51.614;5.530;2023-09-30T13:49:51;4.63;;;2.20;;
59788;SDS011;47353;51.614;5.530;2023-09-30T13:52:17;5.60;;;2.53;;
59788;SDS011;47353;51.614;5.530;2023-09-30T13:54:42;4.50;;;2.42;;
59788;SDS011;47353;51.614;5.530;2023-09-30T13:57:08;4.63;;;2.28;;
59788;SDS011;47353;51.614;5.530;2023-09-30T13:59:34;4.60;;;2.45;;
59788;SDS011;47353;51.614;5.530;2023-09-30T14:02:00;7.50;;;2.83;;
59788;SDS011;47353;51.614;5.530;2023-09-30T14:04:25;6.55;;;2.95;;
59788;SDS011;47353;51.614;5.530;2023-09-30T14:06:51;5.72;;;2.40;;
59788;SDS011;47353;51.614;5.530;2023-09-30T14:09:16;6.88;;;2.88;;
59788;SDS011;47353;51.614;5.530;2023-09-30T14:11:43;5.18;;;2.47;;
59788;SDS011;47353;51.614;5.530;2023-09-30T14:14:09;5.68;;;2.60;;
59788;SDS011;47353;51.614;5.530;2023-09-30T14:16:35;4.20;;;2.20;;
59788;SDS011;47353;51.614;5.530;2023-09-30T14:19:02;5.40;;;2.30;;
59788;SDS011;47353;51.614;5.530;2023-09-30T14:21:28;4.68;;;2.40;;
59788;SDS011;47353;51.614;5.530;2023-09-30T14:23:54;5.63;;;2.70;;
59788;SDS011;47353;51.614;5.530;2023-09-30T14:26:19;4.85;;;2.50;;
59788;SDS011;47353;51.614;5.530;2023-09-30T14:28:45;4.85;;;2.60;;
59788;SDS011;47353;51.614;5.530;2023-09-30T14:31:10;4.90;;;2.80;;
59788;SDS011;47353;51.614;5.530;2023-09-30T14:33:36;5.15;;;2.53;;
59788;SDS011;47353;51.614;5.530;2023-09-30T14:36:02;6.13;;;2.80;;
59788;SDS011;47353;51.614;5.530;2023-09-30T14:38:31;5.30;;;2.45;;
59788;SDS011;47353;51.614;5.530;2023-09-30T14:40:56;4.80;;;2.28;;
59788;SDS011;47353;51.614;5.530;2023-09-30T14:43:22;6.35;;;2.50;;
59788;SDS011;47353;51.614;5.530;2023-09-30T14:45:47;6.03;;;2.83;;
59788;SDS011;47353;51.614;5.530;2023-09-30T14:48:13;4.88;;;2.60;;
59788;SDS011;47353;51.614;5.530;2023-09-30T14:50:47;4.53;;;2.20;;
59788;SDS011;47353;51.614;5.530;2023-09-30T14:53:14;4.82;;;2.15;;
59788;SDS011;47353;51.614;5.530;2023-09-30T14:55:39;6.35;;;2.60;;
59788;SDS011;47353;51.614;5.530;2023-09-30T14:58:05;6.25;;;2.78;;
59788;SDS011;47353;51.614;5.530;2023-09-30T15:00:31;4.38;;;2.03;;
59788;SDS011;47353;51.614;5.530;2023-09-30T15:02:56;4.13;;;2.20;;
59788;SDS011;47353;51.614;5.530;2023-09-30T15:05:22;3.28;;;2.00;;
59788;SDS011;47353;51.614;5.530;2023-09-30T15:07:49;4.70;;;2.15;;
59788;SDS011;47353;51.614;5.530;2023-09-30T15:10:14;3.75;;;2.20;;
59788;SDS011;47353;51.614;5.530;2023-09-30T15:12:39;5.80;;;2.78;;
59788;SDS011;47353;51.614;5.530;2023-09-30T15:15:05;4.57;;;2.70;;
59788;SDS011;47353;51.614;5.530;2023-09-30T15:17:31;5.95;;;2.67;;
59788;SDS011;47353;51.614;5.530;2023-09-30T15:19:57;4.72;;;2.40;;
59788;SDS011;47353;51.614;5.530;2023-09-30T15:22:24;3.67;;;2.10;;
59788;SDS011;47353;51.614;5.530;2023-09-30T15:24:49;4.40;;;2.20;;
59788;SDS011;47353;51.614;5.530;2023-09-30T15:27:15;4.60;;;2.53;;
59788;SDS011;47353;51.614;5.530;2023-09-30T15:29:40;5.32;;;2.40;;
59788;SDS011;47353;51.614;5.530;2023-09-30T15:32:06;4.80;;;2.50;;
59788;SDS011;47353;51.614;5.530;2023-09-30T15:34:35;3.85;;;2.30;;
59788;SDS011;47353;51.614;5.530;2023-09-30T15:37:03;6.68;;;2.85;;
59788;SDS011;47353;51.614;5.530;2023-09-30T15:39:29;4.85;;;2.30;;
59788;SDS011;47353;51.614;5.530;2023-09-30T15:42:03;6.15;;;2.90;;
59788;SDS011;47353;51.614;5.530;2023-09-30T15:44:28;5.97;;;4.30;;
59788;SDS011;47353;51.614;5.530;2023-09-30T15:46:54;5.82;;;2.97;;